Prophetstown, Illinois
Current Conditions -  °F | °C
As of 6:55 AM on Friday 19 Dec 2014 (Local Time) from KSQI Reporting Station
Overcast Overcast  
Wind Chill: 27°   Ceiling: 1600
Heat Index: 27°   Visibility: 10mi
Dew Point: 19°   Wind: 3mph
Humidity: 74%   Direction: 350°N
Pressure: 30.3"   Gusts: NA
Location:  41.67°N, 89.94°W
Report Text: KSQI 191255Z 35003KT 10SM OVC016 M03/M07 A3030 RMK AO1
Loading
Personal Weather Stations






























Interactive Weather Map New forecast layout! Learn more

10-Day Weather Forecast

Advertisements
Track Severe Weather on mobile